sensor_id;sensor_type;location;lat;lon;timestamp;temperature;humidity
23633;DHT22;11993;48.748;9.166;2023-07-31T00:00:07;16.00;68.50
23633;DHT22;11993;48.748;9.166;2023-07-31T00:02:34;16.00;68.60
23633;DHT22;11993;48.748;9.166;2023-07-31T00:05:00;16.00;68.80
23633;DHT22;11993;48.748;9.166;2023-07-31T00:07:26;15.90;69.30
23633;DHT22;11993;48.748;9.166;2023-07-31T00:09:51;15.90;69.30
23633;DHT22;11993;48.748;9.166;2023-07-31T00:12:19;16.00;69.20
23633;DHT22;11993;48.748;9.166;2023-07-31T00:14:44;15.80;69.70
23633;DHT22;11993;48.748;9.166;2023-07-31T00:17:10;15.70;70.00
23633;DHT22;11993;48.748;9.166;2023-07-31T00:19:36;15.80;69.90
23633;DHT22;11993;48.748;9.166;2023-07-31T00:22:01;15.80;70.00
23633;DHT22;11993;48.748;9.166;2023-07-31T00:24:27;15.60;70.50
23633;DHT22;11993;48.748;9.166;2023-07-31T00:26:52;15.70;70.00
23633;DHT22;11993;48.748;9.166;2023-07-31T00:29:18;15.60;70.70
23633;DHT22;11993;48.748;9.166;2023-07-31T00:31:44;15.50;71.10
23633;DHT22;11993;48.748;9.166;2023-07-31T00:34:09;15.50;71.00
23633;DHT22;11993;48.748;9.166;2023-07-31T00:36:35;15.50;71.40
23633;DHT22;11993;48.748;9.166;2023-07-31T00:39:00;15.30;71.90
23633;DHT22;11993;48.748;9.166;2023-07-31T00:41:26;15.30;71.80
23633;DHT22;11993;48.748;9.166;2023-07-31T00:43:51;15.30;72.00
23633;DHT22;11993;48.748;9.166;2023-07-31T00:46:17;15.20;72.40
23633;DHT22;11993;48.748;9.166;2023-07-31T00:48:43;15.20;72.70
23633;DHT22;11993;48.748;9.166;2023-07-31T00:51:11;15.10;72.80
23633;DHT22;11993;48.748;9.166;2023-07-31T00:53:37;15.10;73.20
23633;DHT22;11993;48.748;9.166;2023-07-31T00:56:03;15.00;73.50
23633;DHT22;11993;48.748;9.166;2023-07-31T00:58:29;15.10;73.30
23633;DHT22;11993;48.748;9.166;2023-07-31T01:00:55;15.00;73.70
23633;DHT22;11993;48.748;9.166;2023-07-31T01:03:20;15.00;73.70
23633;DHT22;11993;48.748;9.166;2023-07-31T01:06:06;15.10;73.10
23633;DHT22;11993;48.748;9.166;2023-07-31T01:09:06;15.20;72.70
23633;DHT22;11993;48.748;9.166;2023-07-31T01:11:52;15.20;72.90
23633;DHT22;11993;48.748;9.166;2023-07-31T01:14:18;15.20;72.80
23633;DHT22;11993;48.748;9.166;2023-07-31T01:16:44;15.20;72.70
23633;DHT22;11993;48.748;9.166;2023-07-31T01:19:11;15.10;73.40
23633;DHT22;11993;48.748;9.166;2023-07-31T01:27:32;15.10;73.20
23633;DHT22;11993;48.748;9.166;2023-07-31T01:30:11;15.10;73.30
23633;DHT22;11993;48.748;9.166;2023-07-31T01:32:43;15.10;73.60
23633;DHT22;11993;48.748;9.166;2023-07-31T01:35:09;15.10;73.70
23633;DHT22;11993;48.748;9.166;2023-07-31T01:37:35;15.10;73.60
23633;DHT22;11993;48.748;9.166;2023-07-31T01:40:01;14.90;74.00
23633;DHT22;11993;48.748;9.166;2023-07-31T01:42:26;14.90;74.30
23633;DHT22;11993;48.748;9.166;2023-07-31T01:44:52;15.10;73.90
23633;DHT22;11993;48.748;9.166;2023-07-31T01:47:17;15.10;73.70
23633;DHT22;11993;48.748;9.166;2023-07-31T01:49:43;14.90;74.30
23633;DHT22;11993;48.748;9.166;2023-07-31T01:52:08;15.00;74.10
23633;DHT22;11993;48.748;9.166;2023-07-31T01:54:34;14.90;74.10
23633;DHT22;11993;48.748;9.166;2023-07-31T01:56:59;14.90;74.10
23633;DHT22;11993;48.748;9.166;2023-07-31T01:59:25;15.00;74.00
23633;DHT22;11993;48.748;9.166;2023-07-31T02:01:50;15.00;74.00
23633;DHT22;11993;48.748;9.166;2023-07-31T02:04:16;14.90;74.30
23633;DHT22;11993;48.748;9.166;2023-07-31T02:06:42;15.00;73.80
23633;DHT22;11993;48.748;9.166;2023-07-31T02:09:08;15.10;73.70
23633;DHT22;11993;48.748;9.166;2023-07-31T02:11:33;15.10;73.60
23633;DHT22;11993;48.748;9.166;2023-07-31T02:13:59;15.10;73.80
23633;DHT22;11993;48.748;9.166;2023-07-31T02:16:25;15.00;73.80
23633;DHT22;11993;48.748;9.166;2023-07-31T02:18:50;15.00;74.10
23633;DHT22;11993;48.748;9.166;2023-07-31T02:21:16;15.00;73.80
23633;DHT22;11993;48.748;9.166;2023-07-31T02:23:41;15.10;73.80
23633;DHT22;11993;48.748;9.166;2023-07-31T02:26:07;14.90;74.10
23633;DHT22;11993;48.748;9.166;2023-07-31T02:28:32;15.00;74.30
23633;DHT22;11993;48.748;9.166;2023-07-31T02:30:58;15.10;73.90
23633;DHT22;11993;48.748;9.166;2023-07-31T02:33:24;15.00;73.70
23633;DHT22;11993;48.748;9.166;2023-07-31T02:35:49;15.10;73.70
23633;DHT22;11993;48.748;9.166;2023-07-31T02:38:15;14.90;74.10
23633;DHT22;11993;48.748;9.166;2023-07-31T02:40:40;14.80;74.30
23633;DHT22;11993;48.748;9.166;2023-07-31T02:43:09;14.90;74.30
23633;DHT22;11993;48.748;9.166;2023-07-31T02:45:34;14.80;74.50
23633;DHT22;11993;48.748;9.166;2023-07-31T02:48:00;14.90;74.20
23633;DHT22;11993;48.748;9.166;2023-07-31T02:50:26;14.90;73.90
23633;DHT22;11993;48.748;9.166;2023-07-31T02:52:53;14.90;74.30
23633;DHT22;11993;48.748;9.166;2023-07-31T02:55:18;14.90;74.10
23633;DHT22;11993;48.748;9.166;2023-07-31T02:57:44;14.80;74.40
23633;DHT22;11993;48.748;9.166;2023-07-31T03:00:09;14.60;75.10
23633;DHT22;11993;48.748;9.166;2023-07-31T03:02:35;14.50;75.60
23633;DHT22;11993;48.748;9.166;2023-07-31T03:05:01;14.60;75.40
23633;DHT22;11993;48.748;9.166;2023-07-31T03:07:26;14.50;75.60
23633;DHT22;11993;48.748;9.166;2023-07-31T03:09:52;14.50;75.60
23633;DHT22;11993;48.748;9.166;2023-07-31T03:12:17;14.50;75.70
23633;DHT22;11993;48.748;9.166;2023-07-31T03:14:43;14.60;75.50
23633;DHT22;11993;48.748;9.166;2023-07-31T03:17:08;14.60;75.40
23633;DHT22;11993;48.748;9.166;2023-07-31T03:19:34;14.60;75.50
23633;DHT22;11993;48.748;9.166;2023-07-31T03:22:00;14.60;75.50
23633;DHT22;11993;48.748;9.166;2023-07-31T03:24:26;14.50;75.50
23633;DHT22;11993;48.748;9.166;2023-07-31T03:26:51;14.60;75.40
23633;DHT22;11993;48.748;9.166;2023-07-31T03:29:17;14.60;75.50
23633;DHT22;11993;48.748;9.166;2023-07-31T03:31:42;14.60;75.10
23633;DHT22;11993;48.748;9.166;2023-07-31T03:34:08;14.60;75.10
23633;DHT22;11993;48.748;9.166;2023-07-31T03:36:33;14.60;75.30
23633;DHT22;11993;48.748;9.166;2023-07-31T03:38:59;14.40;75.60
23633;DHT22;11993;48.748;9.166;2023-07-31T03:41:24;14.50;75.30
23633;DHT22;11993;48.748;9.166;2023-07-31T03:43:51;14.60;75.10
23633;DHT22;11993;48.748;9.166;2023-07-31T03:46:24;14.40;75.20
23633;DHT22;11993;48.748;9.166;2023-07-31T03:48:50;14.60;74.60
23633;DHT22;11993;48.748;9.166;2023-07-31T03:51:16;14.60;74.60
23633;DHT22;11993;48.748;9.166;2023-07-31T03:53:42;14.60;74.80
23633;DHT22;11993;48.748;9.166;2023-07-31T03:56:08;14.70;74.20
23633;DHT22;11993;48.748;9.166;2023-07-31T03:58:33;14.60;74.30
23633;DHT22;11993;48.748;9.166;2023-07-31T04:01:00;14.70;74.10
23633;DHT22;11993;48.748;9.166;2023-07-31T04:03:26;14.90;73.40
23633;DHT22;11993;48.748;9.166;2023-07-31T04:05:53;15.00;73.20
23633;DHT22;11993;48.748;9.166;2023-07-31T04:08:19;14.80;73.40
23633;DHT22;11993;48.748;9.166;2023-07-31T04:10:44;14.80;73.70
23633;DHT22;11993;48.748;9.166;2023-07-31T04:13:10;14.80;73.60
23633;DHT22;11993;48.748;9.166;2023-07-31T04:15:36;14.90;73.00
23633;DHT22;11993;48.748;9.166;2023-07-31T04:18:01;15.00;72.90
23633;DHT22;11993;48.748;9.166;2023-07-31T04:20:26;15.10;72.60
23633;DHT22;11993;48.748;9.166;2023-07-31T04:22:52;15.10;72.00
23633;DHT22;11993;48.748;9.166;2023-07-31T04:25:18;15.10;72.60
23633;DHT22;11993;48.748;9.166;2023-07-31T04:27:43;15.20;72.20
23633;DHT22;11993;48.748;9.166;2023-07-31T04:30:09;15.10;72.80
23633;DHT22;11993;48.748;9.166;2023-07-31T04:32:34;15.10;72.60
23633;DHT22;11993;48.748;9.166;2023-07-31T04:35:01;15.20;72.30
23633;DHT22;11993;48.748;9.166;2023-07-31T04:37:26;15.30;72.20
23633;DHT22;11993;48.748;9.166;2023-07-31T04:39:52;15.20;72.20
23633;DHT22;11993;48.748;9.166;2023-07-31T04:42:17;15.30;71.70
23633;DHT22;11993;48.748;9.166;2023-07-31T04:44:43;15.30;72.00
23633;DHT22;11993;48.748;9.166;2023-07-31T04:47:08;15.40;71.50
23633;DHT22;11993;48.748;9.166;2023-07-31T04:49:34;15.30;71.80
23633;DHT22;11993;48.748;9.166;2023-07-31T04:51:59;15.40;71.80
23633;DHT22;11993;48.748;9.166;2023-07-31T04:54:25;15.40;71.60
23633;DHT22;11993;48.748;9.166;2023-07-31T04:56:50;15.60;71.40
23633;DHT22;11993;48.748;9.166;2023-07-31T04:59:17;15.60;71.60
23633;DHT22;11993;48.748;9.166;2023-07-31T05:01:43;15.60;71.60
23633;DHT22;11993;48.748;9.166;2023-07-31T05:04:12;15.60;71.40
23633;DHT22;11993;48.748;9.166;2023-07-31T05:06:38;15.60;71.50
23633;DHT22;11993;48.748;9.166;2023-07-31T05:09:03;15.70;71.50
23633;DHT22;11993;48.748;9.166;2023-07-31T05:11:29;15.70;71.20
23633;DHT22;11993;48.748;9.166;2023-07-31T05:13:54;15.70;71.60
23633;DHT22;11993;48.748;9.166;2023-07-31T05:16:20;15.60;71.50
23633;DHT22;11993;48.748;9.166;2023-07-31T05:18:45;15.80;71.40
23633;DHT22;11993;48.748;9.166;2023-07-31T05:21:11;15.60;71.90
23633;DHT22;11993;48.748;9.166;2023-07-31T05:23:37;15.60;71.70
23633;DHT22;11993;48.748;9.166;2023-07-31T05:26:04;15.70;71.60
23633;DHT22;11993;48.748;9.166;2023-07-31T05:28:30;15.80;71.40
23633;DHT22;11993;48.748;9.166;2023-07-31T05:30:59;15.70;71.40
23633;DHT22;11993;48.748;9.166;2023-07-31T05:33:25;15.80;71.20
23633;DHT22;11993;48.748;9.166;2023-07-31T05:35:51;15.60;71.70
23633;DHT22;11993;48.748;9.166;2023-07-31T05:38:16;15.80;71.50
23633;DHT22;11993;48.748;9.166;2023-07-31T05:40:42;15.80;71.20
23633;DHT22;11993;48.748;9.166;2023-07-31T05:43:08;15.80;71.60
23633;DHT22;11993;48.748;9.166;2023-07-31T05:45:34;16.00;71.00
23633;DHT22;11993;48.748;9.166;2023-07-31T05:48:00;16.10;70.60
23633;DHT22;11993;48.748;9.166;2023-07-31T05:50:26;16.20;70.40
23633;DHT22;11993;48.748;9.166;2023-07-31T05:52:51;16.40;70.00
23633;DHT22;11993;48.748;9.166;2023-07-31T05:55:17;16.60;69.40
23633;DHT22;11993;48.748;9.166;2023-07-31T05:57:43;16.60;68.90
23633;DHT22;11993;48.748;9.166;2023-07-31T06:00:11;16.60;68.60
23633;DHT22;11993;48.748;9.166;2023-07-31T06:02:37;16.60;69.20
23633;DHT22;11993;48.748;9.166;2023-07-31T06:05:04;16.70;68.60
23633;DHT22;11993;48.748;9.166;2023-07-31T06:07:33;16.90;67.70
23633;DHT22;11993;48.748;9.166;2023-07-31T06:09:59;17.00;67.80
23633;DHT22;11993;48.748;9.166;2023-07-31T06:12:30;17.10;67.10
23633;DHT22;11993;48.748;9.166;2023-07-31T06:14:56;17.20;67.20
23633;DHT22;11993;48.748;9.166;2023-07-31T06:17:22;17.40;66.60
23633;DHT22;11993;48.748;9.166;2023-07-31T06:19:47;17.50;65.80
23633;DHT22;11993;48.748;9.166;2023-07-31T06:22:13;17.40;65.20
23633;DHT22;11993;48.748;9.166;2023-07-31T06:24:38;17.40;65.60
23633;DHT22;11993;48.748;9.166;2023-07-31T06:27:04;17.60;64.20
23633;DHT22;11993;48.748;9.166;2023-07-31T06:29:31;17.60;63.20
23633;DHT22;11993;48.748;9.166;2023-07-31T06:31:57;17.70;62.90
23633;DHT22;11993;48.748;9.166;2023-07-31T06:34:22;17.70;63.20
23633;DHT22;11993;48.748;9.166;2023-07-31T06:36:48;18.10;62.70
23633;DHT22;11993;48.748;9.166;2023-07-31T06:39:13;17.90;63.00
23633;DHT22;11993;48.748;9.166;2023-07-31T06:41:39;17.90;62.40
23633;DHT22;11993;48.748;9.166;2023-07-31T06:44:04;18.00;63.10
23633;DHT22;11993;48.748;9.166;2023-07-31T06:46:30;18.00;62.90
23633;DHT22;11993;48.748;9.166;2023-07-31T06:48:55;17.80;63.00
23633;DHT22;11993;48.748;9.166;2023-07-31T06:51:21;17.80;63.40
23633;DHT22;11993;48.748;9.166;2023-07-31T06:53:46;18.00;63.20
23633;DHT22;11993;48.748;9.166;2023-07-31T06:56:12;18.20;63.20
23633;DHT22;11993;48.748;9.166;2023-07-31T06:58:38;18.30;61.60
23633;DHT22;11993;48.748;9.166;2023-07-31T07:01:03;18.40;61.50
23633;DHT22;11993;48.748;9.166;2023-07-31T07:03:29;18.60;61.50
23633;DHT22;11993;48.748;9.166;2023-07-31T07:05:55;18.40;61.30
23633;DHT22;11993;48.748;9.166;2023-07-31T07:08:20;18.60;61.10
23633;DHT22;11993;48.748;9.166;2023-07-31T07:10:46;18.80;61.00
23633;DHT22;11993;48.748;9.166;2023-07-31T07:13:12;18.90;60.90
23633;DHT22;11993;48.748;9.166;2023-07-31T07:15:38;18.90;60.20
23633;DHT22;11993;48.748;9.166;2023-07-31T07:18:04;18.60;60.30
23633;DHT22;11993;48.748;9.166;2023-07-31T07:20:29;18.50;60.50
23633;DHT22;11993;48.748;9.166;2023-07-31T07:22:55;18.40;60.40
23633;DHT22;11993;48.748;9.166;2023-07-31T07:25:20;18.60;60.10
23633;DHT22;11993;48.748;9.166;2023-07-31T07:27:46;18.90;59.70
23633;DHT22;11993;48.748;9.166;2023-07-31T07:30:11;19.10;58.70
23633;DHT22;11993;48.748;9.166;2023-07-31T07:32:37;19.40;58.10
23633;DHT22;11993;48.748;9.166;2023-07-31T07:35:03;19.20;57.50
23633;DHT22;11993;48.748;9.166;2023-07-31T07:37:28;19.20;58.20
23633;DHT22;11993;48.748;9.166;2023-07-31T07:39:54;19.10;58.80
23633;DHT22;11993;48.748;9.166;2023-07-31T07:42:20;19.00;59.70
23633;DHT22;11993;48.748;9.166;2023-07-31T07:44:45;18.70;59.80
23633;DHT22;11993;48.748;9.166;2023-07-31T07:47:12;18.60;60.00
23633;DHT22;11993;48.748;9.166;2023-07-31T07:49:38;18.70;60.50
23633;DHT22;11993;48.748;9.166;2023-07-31T07:52:04;18.80;60.60
23633;DHT22;11993;48.748;9.166;2023-07-31T07:54:30;19.00;60.20
23633;DHT22;11993;48.748;9.166;2023-07-31T07:56:56;19.30;59.10
23633;DHT22;11993;48.748;9.166;2023-07-31T07:59:21;19.40;57.90
23633;DHT22;11993;48.748;9.166;2023-07-31T08:01:47;19.50;58.80
23633;DHT22;11993;48.748;9.166;2023-07-31T08:04:12;19.80;58.60
23633;DHT22;11993;48.748;9.166;2023-07-31T08:06:38;19.70;58.10
23633;DHT22;11993;48.748;9.166;2023-07-31T08:09:04;19.80;57.40
23633;DHT22;11993;48.748;9.166;2023-07-31T08:11:32;19.20;57.50
23633;DHT22;11993;48.748;9.166;2023-07-31T08:13:57;19.40;58.80
23633;DHT22;11993;48.748;9.166;2023-07-31T08:16:23;19.20;58.40
23633;DHT22;11993;48.748;9.166;2023-07-31T08:18:49;19.40;58.10
23633;DHT22;11993;48.748;9.166;2023-07-31T08:21:14;19.60;57.00
23633;DHT22;11993;48.748;9.166;2023-07-31T08:23:40;19.80;57.30
23633;DHT22;11993;48.748;9.166;2023-07-31T08:26:06;19.80;57.40
23633;DHT22;11993;48.748;9.166;2023-07-31T08:28:32;19.70;57.10
23633;DHT22;11993;48.748;9.166;2023-07-31T08:30:57;19.90;56.60
23633;DHT22;11993;48.748;9.166;2023-07-31T08:33:23;20.10;56.40
23633;DHT22;11993;48.748;9.166;2023-07-31T08:35:48;20.30;55.90
23633;DHT22;11993;48.748;9.166;2023-07-31T08:38:14;20.10;55.90
23633;DHT22;11993;48.748;9.166;2023-07-31T08:40:40;20.10;56.30
23633;DHT22;11993;48.748;9.166;2023-07-31T08:43:07;19.80;56.90
23633;DHT22;11993;48.748;9.166;2023-07-31T08:45:32;19.60;57.20
23633;DHT22;11993;48.748;9.166;2023-07-31T08:47:59;19.50;57.60
23633;DHT22;11993;48.748;9.166;2023-07-31T08:50:25;19.70;57.00
23633;DHT22;11993;48.748;9.166;2023-07-31T08:52:51;19.60;56.70
23633;DHT22;11993;48.748;9.166;2023-07-31T08:55:18;19.80;57.30
23633;DHT22;11993;48.748;9.166;2023-07-31T08:57:51;19.80;57.00
23633;DHT22;11993;48.748;9.166;2023-07-31T09:00:17;20.40;55.60
23633;DHT22;11993;48.748;9.166;2023-07-31T09:03:13;20.90;55.30
23633;DHT22;11993;48.748;9.166;2023-07-31T09:05:39;21.10;54.20
23633;DHT22;11993;48.748;9.166;2023-07-31T09:08:09;21.10;53.70
23633;DHT22;11993;48.748;9.166;2023-07-31T09:10:35;21.20;53.70
23633;DHT22;11993;48.748;9.166;2023-07-31T09:13:06;21.10;54.10
23633;DHT22;11993;48.748;9.166;2023-07-31T09:15:32;21.20;53.50
23633;DHT22;11993;48.748;9.166;2023-07-31T09:17:59;21.10;53.10
23633;DHT22;11993;48.748;9.166;2023-07-31T09:20:28;21.20;53.30
23633;DHT22;11993;48.748;9.166;2023-07-31T09:22:55;20.90;54.30
23633;DHT22;11993;48.748;9.166;2023-07-31T09:25:26;21.10;54.00
23633;DHT22;11993;48.748;9.166;2023-07-31T09:27:58;20.90;54.40
23633;DHT22;11993;48.748;9.166;2023-07-31T09:30:24;20.70;54.70
23633;DHT22;11993;48.748;9.166;2023-07-31T09:32:51;20.90;54.50
23633;DHT22;11993;48.748;9.166;2023-07-31T09:35:22;20.90;54.90
23633;DHT22;11993;48.748;9.166;2023-07-31T09:40:31;20.50;55.70
23633;DHT22;11993;48.748;9.166;2023-07-31T09:43:01;20.60;55.30
23633;DHT22;11993;48.748;9.166;2023-07-31T09:45:28;20.10;55.70
23633;DHT22;11993;48.748;9.166;2023-07-31T09:47:54;20.00;56.30
23633;DHT22;11993;48.748;9.166;2023-07-31T09:50:22;20.00;56.80
23633;DHT22;11993;48.748;9.166;2023-07-31T09:52:48;20.10;56.80
23633;DHT22;11993;48.748;9.166;2023-07-31T09:55:13;20.30;56.70
23633;DHT22;11993;48.748;9.166;2023-07-31T09:57:45;20.70;55.70
23633;DHT22;11993;48.748;9.166;2023-07-31T10:00:12;21.20;54.80
23633;DHT22;11993;48.748;9.166;2023-07-31T10:02:39;21.70;52.30
23633;DHT22;11993;48.748;9.166;2023-07-31T10:05:07;21.60;52.60
23633;DHT22;11993;48.748;9.166;2023-07-31T10:07:37;21.40;52.20
23633;DHT22;11993;48.748;9.166;2023-07-31T10:10:07;21.10;53.10
23633;DHT22;11993;48.748;9.166;2023-07-31T10:12:36;21.10;53.60
23633;DHT22;11993;48.748;9.166;2023-07-31T10:15:02;21.40;53.40
23633;DHT22;11993;48.748;9.166;2023-07-31T10:17:29;21.90;52.20
23633;DHT22;11993;48.748;9.166;2023-07-31T10:19:58;21.90;51.70
23633;DHT22;11993;48.748;9.166;2023-07-31T10:22:24;22.20;51.40
23633;DHT22;11993;48.748;9.166;2023-07-31T10:24:52;21.80;51.70
23633;DHT22;11993;48.748;9.166;2023-07-31T10:27:20;21.60;52.50
23633;DHT22;11993;48.748;9.166;2023-07-31T10:29:47;21.50;52.60
23633;DHT22;11993;48.748;9.166;2023-07-31T10:32:14;21.20;53.00
23633;DHT22;11993;48.748;9.166;2023-07-31T10:34:41;21.20;53.50
23633;DHT22;11993;48.748;9.166;2023-07-31T10:37:42;21.40;52.90
23633;DHT22;11993;48.748;9.166;2023-07-31T10:40:16;21.70;51.90
23633;DHT22;11993;48.748;9.166;2023-07-31T10:42:46;22.20;51.90
23633;DHT22;11993;48.748;9.166;2023-07-31T10:45:13;23.00;49.10
23633;DHT22;11993;48.748;9.166;2023-07-31T10:47:45;23.10;49.60
23633;DHT22;11993;48.748;9.166;2023-07-31T10:50:21;22.70;50.10
23633;DHT22;11993;48.748;9.166;2023-07-31T10:52:52;22.40;49.60
23633;DHT22;11993;48.748;9.166;2023-07-31T10:55:47;22.60;49.60
23633;DHT22;11993;48.748;9.166;2023-07-31T10:58:14;22.40;49.30
23633;DHT22;11993;48.748;9.166;2023-07-31T11:00:44;21.90;50.70
23633;DHT22;11993;48.748;9.166;2023-07-31T11:03:10;22.20;50.70
23633;DHT22;11993;48.748;9.166;2023-07-31T11:05:51;22.50;50.40
23633;DHT22;11993;48.748;9.166;2023-07-31T11:08:26;22.50;49.60
23633;DHT22;11993;48.748;9.166;2023-07-31T11:13:27;22.10;49.60
23633;DHT22;11993;48.748;9.166;2023-07-31T11:15:53;21.90;50.40
23633;DHT22;11993;48.748;9.166;2023-07-31T11:18:19;22.00;51.40
23633;DHT22;11993;48.748;9.166;2023-07-31T11:20:44;21.70;51.10
23633;DHT22;11993;48.748;9.166;2023-07-31T11:23:11;21.70;51.40
23633;DHT22;11993;48.748;9.166;2023-07-31T11:25:38;21.80;51.70
23633;DHT22;11993;48.748;9.166;2023-07-31T11:28:11;21.60;51.80
23633;DHT22;11993;48.748;9.166;2023-07-31T11:30:38;21.70;51.30
23633;DHT22;11993;48.748;9.166;2023-07-31T11:33:06;21.60;52.30
23633;DHT22;11993;48.748;9.166;2023-07-31T11:35:34;21.60;52.90
23633;DHT22;11993;48.748;9.166;2023-07-31T11:38:00;21.70;52.90
23633;DHT22;11993;48.748;9.166;2023-07-31T11:40:25;21.60;52.90
23633;DHT22;11993;48.748;9.166;2023-07-31T11:42:58;21.40;53.10
23633;DHT22;11993;48.748;9.166;2023-07-31T11:45:29;21.60;52.90
23633;DHT22;11993;48.748;9.166;2023-07-31T11:47:55;21.60;52.80
23633;DHT22;11993;48.748;9.166;2023-07-31T11:50:23;21.50;53.00
23633;DHT22;11993;48.748;9.166;2023-07-31T11:52:57;21.40;53.40
23633;DHT22;11993;48.748;9.166;2023-07-31T11:55:24;21.40;54.90
23633;DHT22;11993;48.748;9.166;2023-07-31T11:57:51;21.60;54.00
23633;DHT22;11993;48.748;9.166;2023-07-31T12:00:18;21.70;53.60
23633;DHT22;11993;48.748;9.166;2023-07-31T12:02:44;21.60;52.90
23633;DHT22;11993;48.748;9.166;2023-07-31T12:05:13;21.60;54.00
23633;DHT22;11993;48.748;9.166;2023-07-31T12:07:46;21.60;53.90
23633;DHT22;11993;48.748;9.166;2023-07-31T12:10:29;21.20;54.20
23633;DHT22;11993;48.748;9.166;2023-07-31T12:13:00;21.50;54.30
23633;DHT22;11993;48.748;9.166;2023-07-31T12:15:37;21.40;54.00
23633;DHT22;11993;48.748;9.166;2023-07-31T12:18:08;21.40;54.00
23633;DHT22;11993;48.748;9.166;2023-07-31T12:20:34;21.70;53.70
23633;DHT22;11993;48.748;9.166;2023-07-31T12:22:59;21.40;54.00
23633;DHT22;11993;48.748;9.166;2023-07-31T12:25:32;21.40;54.10
23633;DHT22;11993;48.748;9.166;2023-07-31T12:28:03;21.30;54.20
23633;DHT22;11993;48.748;9.166;2023-07-31T12:30:35;21.20;54.20
23633;DHT22;11993;48.748;9.166;2023-07-31T12:33:07;21.20;54.10
23633;DHT22;11993;48.748;9.166;2023-07-31T12:35:38;21.30;54.30
23633;DHT22;11993;48.748;9.166;2023-07-31T12:38:05;21.50;54.80
23633;DHT22;11993;48.748;9.166;2023-07-31T12:40:31;21.50;53.70
23633;DHT22;11993;48.748;9.166;2023-07-31T12:42:56;21.60;53.00
23633;DHT22;11993;48.748;9.166;2023-07-31T12:45:22;21.60;53.40
23633;DHT22;11993;48.748;9.166;2023-07-31T12:47:48;21.50;54.60
23633;DHT22;11993;48.748;9.166;2023-07-31T12:50:14;21.60;54.80
23633;DHT22;11993;48.748;9.166;2023-07-31T12:52:39;21.30;55.10
23633;DHT22;11993;48.748;9.166;2023-07-31T12:55:05;21.50;53.90
23633;DHT22;11993;48.748;9.166;2023-07-31T12:57:31;21.60;54.20
23633;DHT22;11993;48.748;9.166;2023-07-31T12:59:56;21.60;53.40
23633;DHT22;11993;48.748;9.166;2023-07-31T13:02:22;21.50;53.70
23633;DHT22;11993;48.748;9.166;2023-07-31T13:04:49;21.90;53.20
23633;DHT22;11993;48.748;9.166;2023-07-31T13:07:14;22.00;52.50
23633;DHT22;11993;48.748;9.166;2023-07-31T13:09:46;22.00;52.50
23633;DHT22;11993;48.748;9.166;2023-07-31T13:12:12;21.80;53.00
23633;DHT22;11993;48.748;9.166;2023-07-31T13:14:37;22.00;52.90
23633;DHT22;11993;48.748;9.166;2023-07-31T13:17:03;22.10;53.20
23633;DHT22;11993;48.748;9.166;2023-07-31T13:19:29;22.20;52.90
23633;DHT22;11993;48.748;9.166;2023-07-31T13:21:54;22.40;51.50
23633;DHT22;11993;48.748;9.166;2023-07-31T13:24:20;22.50;51.70
23633;DHT22;11993;48.748;9.166;2023-07-31T13:26:45;22.50;51.70
23633;DHT22;11993;48.748;9.166;2023-07-31T13:29:11;22.70;52.50
23633;DHT22;11993;48.748;9.166;2023-07-31T13:31:36;23.10;53.00
23633;DHT22;11993;48.748;9.166;2023-07-31T13:34:02;23.10;50.50
23633;DHT22;11993;48.748;9.166;2023-07-31T13:36:28;23.40;49.90
23633;DHT22;11993;48.748;9.166;2023-07-31T13:38:53;23.10;49.50
23633;DHT22;11993;48.748;9.166;2023-07-31T13:41:19;23.00;51.10
23633;DHT22;11993;48.748;9.166;2023-07-31T13:43:44;22.80;50.50
23633;DHT22;11993;48.748;9.166;2023-07-31T13:46:10;22.80;51.30
23633;DHT22;11993;48.748;9.166;2023-07-31T13:48:36;22.80;51.60
23633;DHT22;11993;48.748;9.166;2023-07-31T13:51:02;22.90;51.90
23633;DHT22;11993;48.748;9.166;2023-07-31T13:53:27;22.70;51.80
23633;DHT22;11993;48.748;9.166;2023-07-31T13:55:53;22.70;51.80
23633;DHT22;11993;48.748;9.166;2023-07-31T13:58:20;22.70;52.30
23633;DHT22;11993;48.748;9.166;2023-07-31T14:00:46;22.90;53.00
23633;DHT22;11993;48.748;9.166;2023-07-31T14:03:11;22.70;52.40
23633;DHT22;11993;48.748;9.166;2023-07-31T14:05:37;22.60;52.70
23633;DHT22;11993;48.748;9.166;2023-07-31T14:08:03;22.50;52.50
23633;DHT22;11993;48.748;9.166;2023-07-31T14:10:34;22.50;52.30
23633;DHT22;11993;48.748;9.166;2023-07-31T14:13:00;22.60;52.60
23633;DHT22;11993;48.748;9.166;2023-07-31T14:15:25;22.60;52.60
23633;DHT22;11993;48.748;9.166;2023-07-31T14:17:51;22.50;53.10
23633;DHT22;11993;48.748;9.166;2023-07-31T14:20:17;22.40;53.40
23633;DHT22;11993;48.748;9.166;2023-07-31T14:22:42;22.40;53.20
23633;DHT22;11993;48.748;9.166;2023-07-31T14:25:08;22.40;53.90
23633;DHT22;11993;48.748;9.166;2023-07-31T14:27:35;22.40;53.80
23633;DHT22;11993;48.748;9.166;2023-07-31T14:30:02;22.40;54.00
23633;DHT22;11993;48.748;9.166;2023-07-31T14:32:27;22.50;53.70
23633;DHT22;11993;48.748;9.166;2023-07-31T14:34:53;22.40;53.70
23633;DHT22;11993;48.748;9.166;2023-07-31T14:37:20;22.50;53.70
23633;DHT22;11993;48.748;9.166;2023-07-31T14:39:45;22.40;53.70
23633;DHT22;11993;48.748;9.166;2023-07-31T14:42:11;22.40;53.90
23633;DHT22;11993;48.748;9.166;2023-07-31T14:44:36;22.40;54.30
23633;DHT22;11993;48.748;9.166;2023-07-31T14:47:02;22.20;54.40
23633;DHT22;11993;48.748;9.166;2023-07-31T14:49:28;22.10;53.60
23633;DHT22;11993;48.748;9.166;2023-07-31T14:51:54;22.40;53.50
23633;DHT22;11993;48.748;9.166;2023-07-31T14:54:20;22.60;53.00
23633;DHT22;11993;48.748;9.166;2023-07-31T14:56:45;22.60;52.10
23633;DHT22;11993;48.748;9.166;2023-07-31T14:59:11;22.30;52.40
23633;DHT22;11993;48.748;9.166;2023-07-31T15:01:37;22.30;52.10
23633;DHT22;11993;48.748;9.166;2023-07-31T15:04:03;22.50;51.80
23633;DHT22;11993;48.748;9.166;2023-07-31T15:06:28;22.50;51.40
23633;DHT22;11993;48.748;9.166;2023-07-31T15:08:54;22.20;51.70
23633;DHT22;11993;48.748;9.166;2023-07-31T15:11:19;22.40;51.50
23633;DHT22;11993;48.748;9.166;2023-07-31T15:13:45;22.60;51.00
23633;DHT22;11993;48.748;9.166;2023-07-31T15:16:10;22.60;50.70
23633;DHT22;11993;48.748;9.166;2023-07-31T15:18:36;22.70;52.20
23633;DHT22;11993;48.748;9.166;2023-07-31T15:21:01;22.90;51.00
23633;DHT22;11993;48.748;9.166;2023-07-31T15:23:27;22.70;51.40
23633;DHT22;11993;48.748;9.166;2023-07-31T15:25:53;22.80;51.50
23633;DHT22;11993;48.748;9.166;2023-07-31T15:28:18;23.10;51.30
23633;DHT22;11993;48.748;9.166;2023-07-31T15:30:44;23.30;50.80
23633;DHT22;11993;48.748;9.166;2023-07-31T15:33:10;23.50;50.10
23633;DHT22;11993;48.748;9.166;2023-07-31T15:35:36;23.60;49.20
23633;DHT22;11993;48.748;9.166;2023-07-31T15:38:01;23.70;49.10